Airport View

Enter AWOS ICAO identifier for current METAR.

ex. KFNL

KHDN 261056Z AUTO 09010KT 10SM CLR 09/03 A3012 RMK AO2 SLP131 T00940033

26 Jun 2019 11:48

Frequency: 119.275

Phone: 970-276-3690

Other Area AWOS: KCAG - KSBS - KC07 - KDWX

TAF KEGE 260533Z 2606/2706 VRB04KT P6SM FEW250 FM261700 23005KT P6SM SCT250 FM261900 23012G22KT P6SM SCT250